sensor_id;sensor_type;location;lat;lon;timestamp;P1;durP1;ratioP1;P2;durP2;ratioP2
24273;SDS011;12392;42.678;23.380;2023-05-17T00:02:17;9.48;;;4.38;;
24273;SDS011;12392;42.678;23.380;2023-05-17T00:04:42;8.27;;;4.38;;
24273;SDS011;12392;42.678;23.380;2023-05-17T00:07:11;9.43;;;4.93;;
24273;SDS011;12392;42.678;23.380;2023-05-17T00:09:37;10.52;;;4.47;;
24273;SDS011;12392;42.678;23.380;2023-05-17T00:12:02;13.80;;;5.03;;
24273;SDS011;12392;42.678;23.380;2023-05-17T00:14:28;9.60;;;4.85;;
24273;SDS011;12392;42.678;23.380;2023-05-17T00:16:54;9.55;;;4.05;;
24273;SDS011;12392;42.678;23.380;2023-05-17T00:19:19;13.73;;;5.85;;
24273;SDS011;12392;42.678;23.380;2023-05-17T00:21:45;11.32;;;5.43;;
24273;SDS011;12392;42.678;23.380;2023-05-17T00:24:11;7.15;;;4.82;;
24273;SDS011;12392;42.678;23.380;2023-05-17T00:26:36;13.68;;;5.22;;
24273;SDS011;12392;42.678;23.380;2023-05-17T00:29:02;11.80;;;5.18;;
24273;SDS011;12392;42.678;23.380;2023-05-17T00:31:28;10.93;;;5.40;;
24273;SDS011;12392;42.678;23.380;2023-05-17T00:33:53;11.52;;;4.75;;
24273;SDS011;12392;42.678;23.380;2023-05-17T00:36:19;8.48;;;5.10;;
24273;SDS011;12392;42.678;23.380;2023-05-17T00:38:45;11.90;;;5.55;;
24273;SDS011;12392;42.678;23.380;2023-05-17T00:41:11;11.23;;;5.65;;
24273;SDS011;12392;42.678;23.380;2023-05-17T00:43:37;9.23;;;4.70;;
24273;SDS011;12392;42.678;23.380;2023-05-17T00:46:03;10.68;;;5.57;;
24273;SDS011;12392;42.678;23.380;2023-05-17T00:48:29;10.85;;;5.97;;
24273;SDS011;12392;42.678;23.380;2023-05-17T00:50:55;11.15;;;5.70;;
24273;SDS011;12392;42.678;23.380;2023-05-17T00:53:21;13.10;;;6.63;;
24273;SDS011;12392;42.678;23.380;2023-05-17T00:55:47;13.40;;;6.03;;
24273;SDS011;12392;42.678;23.380;2023-05-17T00:58:13;9.52;;;5.68;;
24273;SDS011;12392;42.678;23.380;2023-05-17T01:00:39;11.48;;;6.13;;
24273;SDS011;12392;42.678;23.380;2023-05-17T01:03:05;10.88;;;5.80;;
24273;SDS011;12392;42.678;23.380;2023-05-17T01:05:31;8.45;;;5.70;;
24273;SDS011;12392;42.678;23.380;2023-05-17T01:07:57;17.27;;;6.18;;
24273;SDS011;12392;42.678;23.380;2023-05-17T01:10:29;12.05;;;6.18;;
24273;SDS011;12392;42.678;23.380;2023-05-17T01:13:08;15.10;;;6.10;;
24273;SDS011;12392;42.678;23.380;2023-05-17T01:15:40;12.80;;;5.60;;
24273;SDS011;12392;42.678;23.380;2023-05-17T01:18:11;10.75;;;5.57;;
24273;SDS011;12392;42.678;23.380;2023-05-17T01:20:45;13.73;;;5.75;;
24273;SDS011;12392;42.678;23.380;2023-05-17T01:23:34;11.38;;;5.60;;
24273;SDS011;12392;42.678;23.380;2023-05-17T01:26:17;15.52;;;6.35;;
24273;SDS011;12392;42.678;23.380;2023-05-17T01:31:13;13.55;;;5.43;;
24273;SDS011;12392;42.678;23.380;2023-05-17T01:33:39;12.43;;;6.00;;
24273;SDS011;12392;42.678;23.380;2023-05-17T01:36:05;11.35;;;5.00;;
24273;SDS011;12392;42.678;23.380;2023-05-17T01:38:31;12.98;;;5.18;;
24273;SDS011;12392;42.678;23.380;2023-05-17T01:46:23;10.27;;;4.95;;
24273;SDS011;12392;42.678;23.380;2023-05-17T01:49:04;8.82;;;4.43;;
24273;SDS011;12392;42.678;23.380;2023-05-17T01:54:05;9.82;;;4.22;;
24273;SDS011;12392;42.678;23.380;2023-05-17T01:56:35;10.88;;;4.65;;
24273;SDS011;12392;42.678;23.380;2023-05-17T01:59:02;10.02;;;3.95;;
24273;SDS011;12392;42.678;23.380;2023-05-17T02:01:29;14.98;;;4.10;;
24273;SDS011;12392;42.678;23.380;2023-05-17T02:03:55;12.82;;;3.78;;
24273;SDS011;12392;42.678;23.380;2023-05-17T02:06:21;16.90;;;3.92;;
24273;SDS011;12392;42.678;23.380;2023-05-17T02:08:47;8.20;;;3.40;;
24273;SDS011;12392;42.678;23.380;2023-05-17T02:11:25;12.32;;;5.00;;
24273;SDS011;12392;42.678;23.380;2023-05-17T02:13:53;16.35;;;3.50;;
24273;SDS011;12392;42.678;23.380;2023-05-17T02:16:19;6.20;;;3.25;;
24273;SDS011;12392;42.678;23.380;2023-05-17T02:18:44;8.63;;;3.80;;
24273;SDS011;12392;42.678;23.380;2023-05-17T02:21:10;9.45;;;3.78;;
24273;SDS011;12392;42.678;23.380;2023-05-17T02:23:37;9.45;;;4.13;;
24273;SDS011;12392;42.678;23.380;2023-05-17T02:26:02;17.02;;;4.60;;
24273;SDS011;12392;42.678;23.380;2023-05-17T02:28:28;8.98;;;4.00;;
24273;SDS011;12392;42.678;23.380;2023-05-17T02:30:54;10.98;;;4.70;;
24273;SDS011;12392;42.678;23.380;2023-05-17T02:33:20;11.30;;;4.78;;
24273;SDS011;12392;42.678;23.380;2023-05-17T02:35:48;11.50;;;4.60;;
24273;SDS011;12392;42.678;23.380;2023-05-17T02:38:14;10.27;;;5.70;;
24273;SDS011;12392;42.678;23.380;2023-05-17T02:40:40;11.63;;;5.20;;
24273;SDS011;12392;42.678;23.380;2023-05-17T02:43:06;14.30;;;4.82;;
24273;SDS011;12392;42.678;23.380;2023-05-17T02:45:32;13.68;;;5.03;;
24273;SDS011;12392;42.678;23.380;2023-05-17T02:47:57;14.15;;;4.60;;
24273;SDS011;12392;42.678;23.380;2023-05-17T02:50:23;12.52;;;4.80;;
24273;SDS011;12392;42.678;23.380;2023-05-17T02:52:49;10.98;;;4.80;;
24273;SDS011;12392;42.678;23.380;2023-05-17T02:55:15;8.82;;;4.95;;
24273;SDS011;12392;42.678;23.380;2023-05-17T02:57:40;17.48;;;6.13;;
24273;SDS011;12392;42.678;23.380;2023-05-17T03:00:06;12.98;;;5.43;;
24273;SDS011;12392;42.678;23.380;2023-05-17T03:02:33;11.27;;;5.35;;
24273;SDS011;12392;42.678;23.380;2023-05-17T03:04:58;13.40;;;5.68;;
24273;SDS011;12392;42.678;23.380;2023-05-17T03:07:24;13.05;;;6.47;;
24273;SDS011;12392;42.678;23.380;2023-05-17T03:09:50;9.85;;;5.97;;
24273;SDS011;12392;42.678;23.380;2023-05-17T03:12:15;11.95;;;6.05;;
24273;SDS011;12392;42.678;23.380;2023-05-17T03:14:41;15.60;;;6.20;;
24273;SDS011;12392;42.678;23.380;2023-05-17T03:17:07;13.95;;;6.10;;
24273;SDS011;12392;42.678;23.380;2023-05-17T03:19:32;13.05;;;6.10;;
24273;SDS011;12392;42.678;23.380;2023-05-17T03:21:58;14.93;;;5.57;;
24273;SDS011;12392;42.678;23.380;2023-05-17T03:24:24;13.52;;;6.30;;
24273;SDS011;12392;42.678;23.380;2023-05-17T03:26:50;16.33;;;6.90;;
24273;SDS011;12392;42.678;23.380;2023-05-17T03:29:15;13.85;;;6.78;;
24273;SDS011;12392;42.678;23.380;2023-05-17T03:31:41;16.95;;;7.60;;
24273;SDS011;12392;42.678;23.380;2023-05-17T03:34:07;19.20;;;7.90;;
24273;SDS011;12392;42.678;23.380;2023-05-17T03:36:36;17.52;;;7.60;;
24273;SDS011;12392;42.678;23.380;2023-05-17T03:39:03;16.45;;;7.35;;
24273;SDS011;12392;42.678;23.380;2023-05-17T03:41:29;14.52;;;7.55;;
24273;SDS011;12392;42.678;23.380;2023-05-17T03:43:56;15.60;;;8.75;;
24273;SDS011;12392;42.678;23.380;2023-05-17T03:46:21;11.10;;;7.43;;
24273;SDS011;12392;42.678;23.380;2023-05-17T03:48:47;20.25;;;8.88;;
24273;SDS011;12392;42.678;23.380;2023-05-17T03:51:13;16.48;;;8.60;;
24273;SDS011;12392;42.678;23.380;2023-05-17T03:53:39;19.10;;;9.32;;
24273;SDS011;12392;42.678;23.380;2023-05-17T03:56:07;13.57;;;9.25;;
24273;SDS011;12392;42.678;23.380;2023-05-17T03:58:33;15.50;;;9.80;;
24273;SDS011;12392;42.678;23.380;2023-05-17T04:00:59;14.30;;;10.13;;
24273;SDS011;12392;42.678;23.380;2023-05-17T04:03:25;19.13;;;10.43;;
24273;SDS011;12392;42.678;23.380;2023-05-17T04:05:51;19.17;;;10.77;;
24273;SDS011;12392;42.678;23.380;2023-05-17T04:08:16;23.48;;;11.52;;
24273;SDS011;12392;42.678;23.380;2023-05-17T04:10:42;20.92;;;11.43;;
24273;SDS011;12392;42.678;23.380;2023-05-17T04:13:08;21.95;;;12.07;;
24273;SDS011;12392;42.678;23.380;2023-05-17T04:15:34;20.05;;;11.95;;
24273;SDS011;12392;42.678;23.380;2023-05-17T04:18:00;19.17;;;11.52;;
24273;SDS011;12392;42.678;23.380;2023-05-17T04:20:26;17.02;;;11.50;;
24273;SDS011;12392;42.678;23.380;2023-05-17T04:22:51;15.82;;;11.45;;
24273;SDS011;12392;42.678;23.380;2023-05-17T04:25:17;21.90;;;12.02;;
24273;SDS011;12392;42.678;23.380;2023-05-17T04:27:46;16.98;;;10.82;;
24273;SDS011;12392;42.678;23.380;2023-05-17T04:30:11;15.50;;;10.77;;
24273;SDS011;12392;42.678;23.380;2023-05-17T04:32:37;22.42;;;12.48;;
24273;SDS011;12392;42.678;23.380;2023-05-17T04:35:03;20.45;;;11.48;;
24273;SDS011;12392;42.678;23.380;2023-05-17T04:37:29;21.85;;;12.30;;
24273;SDS011;12392;42.678;23.380;2023-05-17T04:39:55;17.67;;;11.48;;
24273;SDS011;12392;42.678;23.380;2023-05-17T04:42:23;21.83;;;11.55;;
24273;SDS011;12392;42.678;23.380;2023-05-17T04:44:48;18.55;;;11.10;;
24273;SDS011;12392;42.678;23.380;2023-05-17T04:47:14;19.75;;;11.60;;
24273;SDS011;12392;42.678;23.380;2023-05-17T04:49:40;19.70;;;10.85;;
24273;SDS011;12392;42.678;23.380;2023-05-17T04:52:05;22.45;;;11.60;;
24273;SDS011;12392;42.678;23.380;2023-05-17T04:54:31;17.77;;;9.73;;
24273;SDS011;12392;42.678;23.380;2023-05-17T04:56:57;17.13;;;10.38;;
24273;SDS011;12392;42.678;23.380;2023-05-17T04:59:22;16.20;;;10.65;;
24273;SDS011;12392;42.678;23.380;2023-05-17T05:01:48;19.17;;;11.30;;
24273;SDS011;12392;42.678;23.380;2023-05-17T05:04:14;19.63;;;10.63;;
24273;SDS011;12392;42.678;23.380;2023-05-17T05:06:39;15.48;;;10.82;;
24273;SDS011;12392;42.678;23.380;2023-05-17T05:09:05;16.83;;;10.27;;
24273;SDS011;12392;42.678;23.380;2023-05-17T05:11:31;17.60;;;10.60;;
24273;SDS011;12392;42.678;23.380;2023-05-17T05:13:57;18.67;;;11.80;;
24273;SDS011;12392;42.678;23.380;2023-05-17T05:16:25;18.92;;;10.35;;
24273;SDS011;12392;42.678;23.380;2023-05-17T05:18:51;20.00;;;10.32;;
24273;SDS011;12392;42.678;23.380;2023-05-17T05:21:17;14.88;;;9.27;;
24273;SDS011;12392;42.678;23.380;2023-05-17T05:23:42;17.55;;;10.35;;
24273;SDS011;12392;42.678;23.380;2023-05-17T05:26:08;15.93;;;8.77;;
24273;SDS011;12392;42.678;23.380;2023-05-17T05:28:34;22.50;;;9.52;;
24273;SDS011;12392;42.678;23.380;2023-05-17T05:30:59;21.77;;;10.02;;
24273;SDS011;12392;42.678;23.380;2023-05-17T05:33:25;20.50;;;9.55;;
24273;SDS011;12392;42.678;23.380;2023-05-17T05:35:51;14.73;;;8.93;;
24273;SDS011;12392;42.678;23.380;2023-05-17T05:38:17;17.65;;;9.35;;
24273;SDS011;12392;42.678;23.380;2023-05-17T05:40:44;18.30;;;8.98;;
24273;SDS011;12392;42.678;23.380;2023-05-17T05:43:12;17.48;;;10.38;;
24273;SDS011;12392;42.678;23.380;2023-05-17T05:45:37;16.00;;;9.60;;
24273;SDS011;12392;42.678;23.380;2023-05-17T05:48:09;18.38;;;10.75;;
24273;SDS011;12392;42.678;23.380;2023-05-17T05:50:39;20.13;;;8.75;;
24273;SDS011;12392;42.678;23.380;2023-05-17T05:53:07;14.07;;;8.02;;
24273;SDS011;12392;42.678;23.380;2023-05-17T05:55:33;14.27;;;7.88;;
24273;SDS011;12392;42.678;23.380;2023-05-17T05:57:58;13.20;;;8.73;;
24273;SDS011;12392;42.678;23.380;2023-05-17T06:00:24;11.63;;;6.22;;
24273;SDS011;12392;42.678;23.380;2023-05-17T06:02:55;13.00;;;7.53;;
24273;SDS011;12392;42.678;23.380;2023-05-17T06:05:21;16.38;;;9.07;;
24273;SDS011;12392;42.678;23.380;2023-05-17T06:07:47;15.25;;;8.07;;
24273;SDS011;12392;42.678;23.380;2023-05-17T06:10:12;18.70;;;7.90;;
24273;SDS011;12392;42.678;23.380;2023-05-17T06:12:38;13.10;;;7.53;;
24273;SDS011;12392;42.678;23.380;2023-05-17T06:15:06;17.63;;;8.35;;
24273;SDS011;12392;42.678;23.380;2023-05-17T06:17:32;12.63;;;7.80;;
24273;SDS011;12392;42.678;23.380;2023-05-17T06:19:58;14.98;;;7.93;;
24273;SDS011;12392;42.678;23.380;2023-05-17T06:22:23;18.45;;;8.43;;
24273;SDS011;12392;42.678;23.380;2023-05-17T06:24:49;12.80;;;7.30;;
24273;SDS011;12392;42.678;23.380;2023-05-17T06:27:14;12.77;;;6.32;;
24273;SDS011;12392;42.678;23.380;2023-05-17T06:29:40;13.43;;;7.53;;
24273;SDS011;12392;42.678;23.380;2023-05-17T06:32:06;15.10;;;7.70;;
24273;SDS011;12392;42.678;23.380;2023-05-17T06:34:32;15.00;;;7.75;;
24273;SDS011;12392;42.678;23.380;2023-05-17T06:36:57;13.48;;;6.85;;
24273;SDS011;12392;42.678;23.380;2023-05-17T06:39:23;15.35;;;8.02;;
24273;SDS011;12392;42.678;23.380;2023-05-17T06:41:49;20.73;;;8.23;;
24273;SDS011;12392;42.678;23.380;2023-05-17T06:44:15;16.95;;;9.43;;
24273;SDS011;12392;42.678;23.380;2023-05-17T06:46:41;22.83;;;9.10;;
24273;SDS011;12392;42.678;23.380;2023-05-17T06:49:06;18.15;;;9.65;;
24273;SDS011;12392;42.678;23.380;2023-05-17T06:51:34;16.42;;;9.18;;
24273;SDS011;12392;42.678;23.380;2023-05-17T06:54:28;17.20;;;8.85;;
24273;SDS011;12392;42.678;23.380;2023-05-17T06:57:41;14.73;;;8.30;;
24273;SDS011;12392;42.678;23.380;2023-05-17T07:00:07;17.80;;;8.93;;
24273;SDS011;12392;42.678;23.380;2023-05-17T07:02:35;21.50;;;9.35;;
24273;SDS011;12392;42.678;23.380;2023-05-17T07:05:02;14.35;;;7.53;;
24273;SDS011;12392;42.678;23.380;2023-05-17T07:07:30;18.70;;;9.52;;
24273;SDS011;12392;42.678;23.380;2023-05-17T07:10:07;20.52;;;9.38;;
24273;SDS011;12392;42.678;23.380;2023-05-17T07:12:35;40.78;;;14.07;;
24273;SDS011;12392;42.678;23.380;2023-05-17T07:15:01;17.83;;;8.25;;
24273;SDS011;12392;42.678;23.380;2023-05-17T07:17:27;23.15;;;8.98;;
24273;SDS011;12392;42.678;23.380;2023-05-17T07:19:53;19.38;;;8.88;;
24273;SDS011;12392;42.678;23.380;2023-05-17T07:22:19;18.17;;;9.57;;
24273;SDS011;12392;42.678;23.380;2023-05-17T07:24:45;16.50;;;9.00;;
24273;SDS011;12392;42.678;23.380;2023-05-17T07:27:12;14.25;;;9.05;;
24273;SDS011;12392;42.678;23.380;2023-05-17T07:29:37;19.80;;;9.35;;
24273;SDS011;12392;42.678;23.380;2023-05-17T07:32:03;16.42;;;9.02;;
24273;SDS011;12392;42.678;23.380;2023-05-17T07:34:29;16.60;;;8.88;;
24273;SDS011;12392;42.678;23.380;2023-05-17T07:36:55;22.15;;;10.88;;
24273;SDS011;12392;42.678;23.380;2023-05-17T07:39:21;18.27;;;10.57;;
24273;SDS011;12392;42.678;23.380;2023-05-17T07:41:46;20.15;;;11.43;;
24273;SDS011;12392;42.678;23.380;2023-05-17T07:44:12;17.27;;;9.93;;
24273;SDS011;12392;42.678;23.380;2023-05-17T07:46:38;18.95;;;10.85;;
24273;SDS011;12392;42.678;23.380;2023-05-17T07:49:04;20.23;;;10.07;;
24273;SDS011;12392;42.678;23.380;2023-05-17T07:51:29;15.85;;;10.30;;
24273;SDS011;12392;42.678;23.380;2023-05-17T07:53:55;17.70;;;10.10;;
24273;SDS011;12392;42.678;23.380;2023-05-17T07:56:21;22.63;;;10.25;;
24273;SDS011;12392;42.678;23.380;2023-05-17T07:58:47;19.52;;;10.52;;
24273;SDS011;12392;42.678;23.380;2023-05-17T08:01:12;16.98;;;9.82;;
24273;SDS011;12392;42.678;23.380;2023-05-17T08:03:38;15.68;;;8.77;;
24273;SDS011;12392;42.678;23.380;2023-05-17T08:06:11;19.13;;;9.43;;
24273;SDS011;12392;42.678;23.380;2023-05-17T08:08:40;17.73;;;10.00;;
24273;SDS011;12392;42.678;23.380;2023-05-17T08:11:06;15.70;;;8.75;;
24273;SDS011;12392;42.678;23.380;2023-05-17T08:13:33;18.63;;;9.45;;
24273;SDS011;12392;42.678;23.380;2023-05-17T08:15:59;20.42;;;9.85;;
24273;SDS011;12392;42.678;23.380;2023-05-17T08:18:28;17.80;;;10.60;;
24273;SDS011;12392;42.678;23.380;2023-05-17T08:20:54;15.63;;;9.75;;
24273;SDS011;12392;42.678;23.380;2023-05-17T08:23:20;21.45;;;10.23;;
24273;SDS011;12392;42.678;23.380;2023-05-17T08:25:46;19.42;;;10.98;;
24273;SDS011;12392;42.678;23.380;2023-05-17T08:28:12;20.38;;;10.43;;
24273;SDS011;12392;42.678;23.380;2023-05-17T08:30:37;17.95;;;10.10;;
24273;SDS011;12392;42.678;23.380;2023-05-17T08:33:04;18.77;;;10.57;;
24273;SDS011;12392;42.678;23.380;2023-05-17T08:35:30;26.40;;;9.82;;
24273;SDS011;12392;42.678;23.380;2023-05-17T08:37:56;21.40;;;9.45;;
24273;SDS011;12392;42.678;23.380;2023-05-17T08:40:22;17.52;;;10.02;;
24273;SDS011;12392;42.678;23.380;2023-05-17T08:42:51;16.33;;;9.35;;
24273;SDS011;12392;42.678;23.380;2023-05-17T08:45:27;16.60;;;10.07;;
24273;SDS011;12392;42.678;23.380;2023-05-17T08:47:53;22.35;;;10.20;;
24273;SDS011;12392;42.678;23.380;2023-05-17T08:50:19;24.25;;;9.48;;
24273;SDS011;12392;42.678;23.380;2023-05-17T08:52:45;18.67;;;9.93;;
24273;SDS011;12392;42.678;23.380;2023-05-17T08:55:11;22.85;;;10.63;;
24273;SDS011;12392;42.678;23.380;2023-05-17T08:57:40;26.50;;;14.40;;
24273;SDS011;12392;42.678;23.380;2023-05-17T09:00:07;23.00;;;10.65;;
24273;SDS011;12392;42.678;23.380;2023-05-17T09:02:36;18.33;;;10.52;;
24273;SDS011;12392;42.678;23.380;2023-05-17T09:05:03;22.40;;;9.55;;
24273;SDS011;12392;42.678;23.380;2023-05-17T09:07:30;19.35;;;9.40;;
24273;SDS011;12392;42.678;23.380;2023-05-17T09:09:56;18.65;;;9.13;;
24273;SDS011;12392;42.678;23.380;2023-05-17T09:12:22;17.60;;;8.10;;
24273;SDS011;12392;42.678;23.380;2023-05-17T09:14:48;14.73;;;8.20;;
24273;SDS011;12392;42.678;23.380;2023-05-17T09:17:17;17.23;;;9.02;;
24273;SDS011;12392;42.678;23.380;2023-05-17T09:19:44;16.05;;;8.60;;
24273;SDS011;12392;42.678;23.380;2023-05-17T09:22:12;14.27;;;8.35;;
24273;SDS011;12392;42.678;23.380;2023-05-17T09:24:39;13.27;;;7.57;;
24273;SDS011;12392;42.678;23.380;2023-05-17T09:27:05;14.68;;;7.43;;
24273;SDS011;12392;42.678;23.380;2023-05-17T09:29:31;15.48;;;7.90;;
24273;SDS011;12392;42.678;23.380;2023-05-17T09:32:10;17.48;;;8.00;;
24273;SDS011;12392;42.678;23.380;2023-05-17T09:37:12;14.65;;;7.35;;
24273;SDS011;12392;42.678;23.380;2023-05-17T09:39:40;16.45;;;8.02;;
24273;SDS011;12392;42.678;23.380;2023-05-17T09:42:06;14.68;;;9.02;;
24273;SDS011;12392;42.678;23.380;2023-05-17T09:44:54;19.42;;;8.02;;
24273;SDS011;12392;42.678;23.380;2023-05-17T09:47:27;15.80;;;7.43;;
24273;SDS011;12392;42.678;23.380;2023-05-17T09:49:54;14.32;;;7.38;;
24273;SDS011;12392;42.678;23.380;2023-05-17T09:52:22;13.70;;;7.45;;
24273;SDS011;12392;42.678;23.380;2023-05-17T09:54:55;16.45;;;7.32;;
24273;SDS011;12392;42.678;23.380;2023-05-17T09:57:22;14.90;;;6.30;;
24273;SDS011;12392;42.678;23.380;2023-05-17T09:59:49;12.82;;;6.50;;
24273;SDS011;12392;42.678;23.380;2023-05-17T10:02:20;19.90;;;6.70;;
24273;SDS011;12392;42.678;23.380;2023-05-17T10:04:52;14.57;;;5.70;;
24273;SDS011;12392;42.678;23.380;2023-05-17T10:07:21;13.38;;;6.57;;
24273;SDS011;12392;42.678;23.380;2023-05-17T10:09:50;12.18;;;6.03;;
24273;SDS011;12392;42.678;23.380;2023-05-17T10:12:17;16.05;;;6.35;;
24273;SDS011;12392;42.678;23.380;2023-05-17T10:14:44;14.35;;;6.43;;
24273;SDS011;12392;42.678;23.380;2023-05-17T10:17:10;11.63;;;6.03;;
24273;SDS011;12392;42.678;23.380;2023-05-17T10:19:36;13.57;;;6.28;;
24273;SDS011;12392;42.678;23.380;2023-05-17T10:22:02;13.10;;;6.13;;
24273;SDS011;12392;42.678;23.380;2023-05-17T10:24:28;12.10;;;6.88;;
24273;SDS011;12392;42.678;23.380;2023-05-17T10:26:55;14.07;;;6.35;;
24273;SDS011;12392;42.678;23.380;2023-05-17T10:29:21;17.10;;;6.60;;
24273;SDS011;12392;42.678;23.380;2023-05-17T10:31:50;13.43;;;6.38;;
24273;SDS011;12392;42.678;23.380;2023-05-17T10:34:16;19.48;;;6.32;;
24273;SDS011;12392;42.678;23.380;2023-05-17T10:36:43;17.92;;;6.30;;
24273;SDS011;12392;42.678;23.380;2023-05-17T10:39:10;16.02;;;6.90;;
24273;SDS011;12392;42.678;23.380;2023-05-17T10:41:38;15.73;;;6.72;;
24273;SDS011;12392;42.678;23.380;2023-05-17T10:44:05;14.73;;;6.78;;
24273;SDS011;12392;42.678;23.380;2023-05-17T10:46:32;10.95;;;6.35;;
24273;SDS011;12392;42.678;23.380;2023-05-17T10:49:06;12.40;;;5.78;;
24273;SDS011;12392;42.678;23.380;2023-05-17T10:51:37;18.13;;;7.00;;
24273;SDS011;12392;42.678;23.380;2023-05-17T10:54:14;13.55;;;6.35;;
24273;SDS011;12392;42.678;23.380;2023-05-17T10:56:46;14.05;;;6.55;;
24273;SDS011;12392;42.678;23.380;2023-05-17T11:04:26;12.02;;;5.32;;
24273;SDS011;12392;42.678;23.380;2023-05-17T11:10:23;15.27;;;5.85;;
24273;SDS011;12392;42.678;23.380;2023-05-17T11:12:42;16.30;;;5.95;;
24273;SDS011;12392;42.678;23.380;2023-05-17T11:22:56;21.08;;;7.68;;
24273;SDS011;12392;42.678;23.380;2023-05-17T11:25:23;16.52;;;7.07;;
24273;SDS011;12392;42.678;23.380;2023-05-17T11:27:52;17.60;;;7.85;;
24273;SDS011;12392;42.678;23.380;2023-05-17T11:30:22;19.60;;;7.00;;
24273;SDS011;12392;42.678;23.380;2023-05-17T11:32:52;21.55;;;7.68;;
24273;SDS011;12392;42.678;23.380;2023-05-17T11:35:22;16.60;;;7.45;;
24273;SDS011;12392;42.678;23.380;2023-05-17T11:37:51;16.80;;;7.70;;
24273;SDS011;12392;42.678;23.380;2023-05-17T11:40:24;15.18;;;7.38;;
24273;SDS011;12392;42.678;23.380;2023-05-17T11:45:48;21.13;;;7.13;;
24273;SDS011;12392;42.678;23.380;2023-05-17T11:48:15;13.50;;;5.28;;
24273;SDS011;12392;42.678;23.380;2023-05-17T11:50:43;12.23;;;5.80;;
24273;SDS011;12392;42.678;23.380;2023-05-17T11:53:09;18.90;;;7.57;;
24273;SDS011;12392;42.678;23.380;2023-05-17T11:55:39;17.00;;;6.93;;
24273;SDS011;12392;42.678;23.380;2023-05-17T11:58:10;16.95;;;6.18;;
24273;SDS011;12392;42.678;23.380;2023-05-17T12:00:37;13.70;;;6.30;;
24273;SDS011;12392;42.678;23.380;2023-05-17T12:03:37;11.23;;;6.68;;
24273;SDS011;12392;42.678;23.380;2023-05-17T12:08:33;14.90;;;5.35;;
24273;SDS011;12392;42.678;23.380;2023-05-17T12:11:00;14.30;;;6.03;;
24273;SDS011;12392;42.678;23.380;2023-05-17T12:13:28;11.85;;;6.25;;
24273;SDS011;12392;42.678;23.380;2023-05-17T12:16:01;13.15;;;6.05;;
24273;SDS011;12392;42.678;23.380;2023-05-17T12:18:36;19.40;;;5.78;;
24273;SDS011;12392;42.678;23.380;2023-05-17T12:21:03;16.10;;;5.68;;
24273;SDS011;12392;42.678;23.380;2023-05-17T12:23:32;15.70;;;6.25;;
24273;SDS011;12392;42.678;23.380;2023-05-17T12:26:02;10.75;;;5.60;;
24273;SDS011;12392;42.678;23.380;2023-05-17T12:28:28;11.82;;;5.63;;
24273;SDS011;12392;42.678;23.380;2023-05-17T12:30:54;12.23;;;6.00;;
24273;SDS011;12392;42.678;23.380;2023-05-17T12:33:22;12.43;;;6.00;;
24273;SDS011;12392;42.678;23.380;2023-05-17T12:35:49;12.00;;;6.18;;
24273;SDS011;12392;42.678;23.380;2023-05-17T12:38:15;17.77;;;6.70;;
24273;SDS011;12392;42.678;23.380;2023-05-17T12:40:42;15.52;;;6.32;;
24273;SDS011;12392;42.678;23.380;2023-05-17T12:43:08;12.45;;;6.70;;
24273;SDS011;12392;42.678;23.380;2023-05-17T12:45:33;17.75;;;6.65;;
24273;SDS011;12392;42.678;23.380;2023-05-17T12:47:59;9.00;;;4.53;;
24273;SDS011;12392;42.678;23.380;2023-05-17T12:50:28;11.57;;;6.65;;
24273;SDS011;12392;42.678;23.380;2023-05-17T12:52:54;14.20;;;5.80;;
24273;SDS011;12392;42.678;23.380;2023-05-17T12:55:20;13.82;;;5.68;;
24273;SDS011;12392;42.678;23.380;2023-05-17T12:57:50;15.10;;;6.47;;
24273;SDS011;12392;42.678;23.380;2023-05-17T13:00:16;13.65;;;6.70;;
24273;SDS011;12392;42.678;23.380;2023-05-17T13:02:43;8.77;;;5.80;;
24273;SDS011;12392;42.678;23.380;2023-05-17T13:05:26;11.18;;;6.10;;
24273;SDS011;12392;42.678;23.380;2023-05-17T13:07:52;12.98;;;5.43;;
24273;SDS011;12392;42.678;23.380;2023-05-17T13:10:18;10.90;;;5.95;;
24273;SDS011;12392;42.678;23.380;2023-05-17T13:12:57;14.43;;;6.10;;
24273;SDS011;12392;42.678;23.380;2023-05-17T13:15:30;12.20;;;6.35;;
24273;SDS011;12392;42.678;23.380;2023-05-17T13:17:57;12.50;;;5.32;;
24273;SDS011;12392;42.678;23.380;2023-05-17T13:20:24;13.45;;;5.82;;
24273;SDS011;12392;42.678;23.380;2023-05-17T13:22:51;12.63;;;5.93;;
24273;SDS011;12392;42.678;23.380;2023-05-17T13:25:17;11.10;;;6.00;;
24273;SDS011;12392;42.678;23.380;2023-05-17T13:27:46;11.13;;;6.20;;
24273;SDS011;12392;42.678;23.380;2023-05-17T13:30:16;14.30;;;5.22;;
24273;SDS011;12392;42.678;23.380;2023-05-17T13:32:42;13.38;;;5.70;;
24273;SDS011;12392;42.678;23.380;2023-05-17T13:35:08;8.95;;;5.43;;
24273;SDS011;12392;42.678;23.380;2023-05-17T13:37:34;11.82;;;5.50;;
24273;SDS011;12392;42.678;23.380;2023-05-17T13:40:00;7.18;;;5.18;;
24273;SDS011;12392;42.678;23.380;2023-05-17T13:42:27;11.55;;;4.88;;
24273;SDS011;12392;42.678;23.380;2023-05-17T13:44:53;7.50;;;4.28;;
24273;SDS011;12392;42.678;23.380;2023-05-17T13:47:18;9.27;;;4.72;;
24273;SDS011;12392;42.678;23.380;2023-05-17T13:49:44;9.10;;;4.50;;
24273;SDS011;12392;42.678;23.380;2023-05-17T13:52:10;6.75;;;4.10;;
24273;SDS011;12392;42.678;23.380;2023-05-17T13:54:37;14.00;;;5.32;;
24273;SDS011;12392;42.678;23.380;2023-05-17T13:57:04;9.95;;;4.15;;
24273;SDS011;12392;42.678;23.380;2023-05-17T13:59:30;13.27;;;5.35;;
24273;SDS011;12392;42.678;23.380;2023-05-17T14:01:56;8.10;;;4.32;;
24273;SDS011;12392;42.678;23.380;2023-05-17T14:04:22;8.07;;;4.20;;
24273;SDS011;12392;42.678;23.380;2023-05-17T14:06:48;11.48;;;4.63;;
24273;SDS011;12392;42.678;23.380;2023-05-17T14:09:15;10.07;;;4.57;;
24273;SDS011;12392;42.678;23.380;2023-05-17T14:11:41;9.32;;;4.38;;
24273;SDS011;12392;42.678;23.380;2023-05-17T14:14:06;8.35;;;4.32;;
24273;SDS011;12392;42.678;23.380;2023-05-17T14:16:32;9.30;;;4.53;;
24273;SDS011;12392;42.678;23.380;2023-05-17T14:18:58;9.70;;;4.13;;
24273;SDS011;12392;42.678;23.380;2023-05-17T14:21:24;6.82;;;3.75;;
24273;SDS011;12392;42.678;23.380;2023-05-17T14:23:50;11.27;;;4.45;;
24273;SDS011;12392;42.678;23.380;2023-05-17T14:26:16;6.45;;;3.45;;
24273;SDS011;12392;42.678;23.380;2023-05-17T14:28:41;7.28;;;3.97;;
24273;SDS011;12392;42.678;23.380;2023-05-17T14:31:08;7.03;;;3.60;;
24273;SDS011;12392;42.678;23.380;2023-05-17T14:33:33;8.13;;;3.15;;
24273;SDS011;12392;42.678;23.380;2023-05-17T14:35:59;9.20;;;3.22;;
24273;SDS011;12392;42.678;23.380;2023-05-17T14:38:26;8.88;;;3.00;;
24273;SDS011;12392;42.678;23.380;2023-05-17T14:40:51;7.50;;;2.90;;
24273;SDS011;12392;42.678;23.380;2023-05-17T14:43:17;12.90;;;4.05;;
24273;SDS011;12392;42.678;23.380;2023-05-17T14:45:44;4.15;;;2.92;;
24273;SDS011;12392;42.678;23.380;2023-05-17T14:48:10;8.68;;;3.03;;
24273;SDS011;12392;42.678;23.380;2023-05-17T14:50:35;6.43;;;3.95;;
24273;SDS011;12392;42.678;23.380;2023-05-17T14:53:01;4.45;;;2.88;;
24273;SDS011;12392;42.678;23.380;2023-05-17T14:55:27;7.03;;;2.78;;
24273;SDS011;12392;42.678;23.380;2023-05-17T14:57:54;6.10;;;2.85;;